sensor_id;sensor_type;location;lat;lon;timestamp;P1;durP1;ratioP1;P2;durP2;ratioP2
23586;SDS011;11971;51.148;4.104;2023-01-28T00:00:31;69.45;;;35.22;;
23586;SDS011;11971;51.148;4.104;2023-01-28T00:02:58;71.82;;;35.72;;
23586;SDS011;11971;51.148;4.104;2023-01-28T00:05:24;70.28;;;34.97;;
23586;SDS011;11971;51.148;4.104;2023-01-28T00:07:52;71.57;;;35.00;;
23586;SDS011;11971;51.148;4.104;2023-01-28T00:10:19;73.27;;;35.97;;
23586;SDS011;11971;51.148;4.104;2023-01-28T00:12:45;71.65;;;35.55;;
23586;SDS011;11971;51.148;4.104;2023-01-28T00:15:12;73.53;;;36.03;;
23586;SDS011;11971;51.148;4.104;2023-01-28T00:17:39;72.82;;;36.03;;
23586;SDS011;11971;51.148;4.104;2023-01-28T00:20:06;71.78;;;35.53;;
23586;SDS011;11971;51.148;4.104;2023-01-28T00:22:34;71.05;;;35.70;;
23586;SDS011;11971;51.148;4.104;2023-01-28T00:25:02;73.07;;;36.17;;
23586;SDS011;11971;51.148;4.104;2023-01-28T00:27:29;73.32;;;36.35;;
23586;SDS011;11971;51.148;4.104;2023-01-28T00:29:56;72.35;;;36.33;;
23586;SDS011;11971;51.148;4.104;2023-01-28T00:32:22;73.40;;;36.08;;
23586;SDS011;11971;51.148;4.104;2023-01-28T00:34:49;73.63;;;36.13;;
23586;SDS011;11971;51.148;4.104;2023-01-28T00:37:15;74.82;;;36.58;;
23586;SDS011;11971;51.148;4.104;2023-01-28T00:39:42;76.40;;;36.95;;
23586;SDS011;11971;51.148;4.104;2023-01-28T00:42:10;73.47;;;36.47;;
23586;SDS011;11971;51.148;4.104;2023-01-28T00:44:37;72.70;;;35.70;;
23586;SDS011;11971;51.148;4.104;2023-01-28T00:47:03;77.65;;;37.47;;
23586;SDS011;11971;51.148;4.104;2023-01-28T00:49:30;76.07;;;36.25;;
23586;SDS011;11971;51.148;4.104;2023-01-28T00:51:57;72.25;;;36.40;;
23586;SDS011;11971;51.148;4.104;2023-01-28T00:54:23;74.55;;;36.08;;
23586;SDS011;11971;51.148;4.104;2023-01-28T00:56:50;72.57;;;36.05;;
23586;SDS011;11971;51.148;4.104;2023-01-28T00:59:19;68.05;;;34.92;;
23586;SDS011;11971;51.148;4.104;2023-01-28T01:01:45;68.43;;;34.70;;
23586;SDS011;11971;51.148;4.104;2023-01-28T01:04:12;70.30;;;35.13;;
23586;SDS011;11971;51.148;4.104;2023-01-28T01:06:50;71.72;;;34.90;;
23586;SDS011;11971;51.148;4.104;2023-01-28T01:09:17;68.53;;;34.92;;
23586;SDS011;11971;51.148;4.104;2023-01-28T01:11:44;68.63;;;35.10;;
23586;SDS011;11971;51.148;4.104;2023-01-28T01:14:14;72.18;;;36.05;;
23586;SDS011;11971;51.148;4.104;2023-01-28T01:16:42;69.70;;;34.75;;
23586;SDS011;11971;51.148;4.104;2023-01-28T01:19:11;68.10;;;34.58;;
23586;SDS011;11971;51.148;4.104;2023-01-28T01:21:38;69.68;;;34.75;;
23586;SDS011;11971;51.148;4.104;2023-01-28T01:24:05;67.30;;;34.40;;
23586;SDS011;11971;51.148;4.104;2023-01-28T01:26:32;67.72;;;34.95;;
23586;SDS011;11971;51.148;4.104;2023-01-28T01:28:58;69.00;;;34.47;;
23586;SDS011;11971;51.148;4.104;2023-01-28T01:31:25;68.78;;;34.20;;
23586;SDS011;11971;51.148;4.104;2023-01-28T01:33:53;67.85;;;34.03;;
23586;SDS011;11971;51.148;4.104;2023-01-28T01:36:20;66.40;;;33.73;;
23586;SDS011;11971;51.148;4.104;2023-01-28T01:38:51;67.45;;;34.08;;
23586;SDS011;11971;51.148;4.104;2023-01-28T01:41:22;66.90;;;34.17;;
23586;SDS011;11971;51.148;4.104;2023-01-28T01:43:51;69.45;;;34.40;;
23586;SDS011;11971;51.148;4.104;2023-01-28T01:46:20;65.78;;;33.55;;
23586;SDS011;11971;51.148;4.104;2023-01-28T01:48:50;66.63;;;33.88;;
23586;SDS011;11971;51.148;4.104;2023-01-28T01:51:20;68.75;;;34.22;;
23586;SDS011;11971;51.148;4.104;2023-01-28T01:53:48;67.20;;;33.58;;
23586;SDS011;11971;51.148;4.104;2023-01-28T01:56:18;67.57;;;33.85;;
23586;SDS011;11971;51.148;4.104;2023-01-28T01:58:48;66.97;;;33.75;;
23586;SDS011;11971;51.148;4.104;2023-01-28T02:01:16;64.90;;;33.20;;
23586;SDS011;11971;51.148;4.104;2023-01-28T02:03:46;66.13;;;33.38;;
23586;SDS011;11971;51.148;4.104;2023-01-28T02:06:18;65.72;;;33.38;;
23586;SDS011;11971;51.148;4.104;2023-01-28T02:08:45;66.93;;;34.05;;
23586;SDS011;11971;51.148;4.104;2023-01-28T02:11:12;63.53;;;33.00;;
23586;SDS011;11971;51.148;4.104;2023-01-28T02:13:41;67.28;;;34.08;;
23586;SDS011;11971;51.148;4.104;2023-01-28T02:16:11;62.92;;;32.92;;
23586;SDS011;11971;51.148;4.104;2023-01-28T02:18:38;64.43;;;33.15;;
23586;SDS011;11971;51.148;4.104;2023-01-28T02:24:27;66.50;;;33.80;;
23586;SDS011;11971;51.148;4.104;2023-01-28T02:27:19;66.30;;;32.67;;
23586;SDS011;11971;51.148;4.104;2023-01-28T02:29:53;67.50;;;34.25;;
23586;SDS011;11971;51.148;4.104;2023-01-28T02:32:23;70.57;;;36.05;;
23586;SDS011;11971;51.148;4.104;2023-01-28T02:34:54;67.68;;;34.15;;
23586;SDS011;11971;51.148;4.104;2023-01-28T02:37:25;65.05;;;33.10;;
23586;SDS011;11971;51.148;4.104;2023-01-28T02:39:55;65.72;;;33.42;;
23586;SDS011;11971;51.148;4.104;2023-01-28T02:44:50;66.65;;;34.25;;
23586;SDS011;11971;51.148;4.104;2023-01-28T02:47:18;66.60;;;34.77;;
23586;SDS011;11971;51.148;4.104;2023-01-28T02:50:03;68.15;;;33.65;;
23586;SDS011;11971;51.148;4.104;2023-01-28T02:52:34;63.33;;;33.28;;
23586;SDS011;11971;51.148;4.104;2023-01-28T02:55:27;64.57;;;32.92;;
23586;SDS011;11971;51.148;4.104;2023-01-28T02:57:58;65.40;;;33.65;;
23586;SDS011;11971;51.148;4.104;2023-01-28T03:00:30;64.88;;;33.78;;
23586;SDS011;11971;51.148;4.104;2023-01-28T03:03:03;67.72;;;33.88;;
23586;SDS011;11971;51.148;4.104;2023-01-28T03:05:34;67.60;;;33.55;;
23586;SDS011;11971;51.148;4.104;2023-01-28T03:08:02;69.50;;;34.45;;
23586;SDS011;11971;51.148;4.104;2023-01-28T03:10:50;67.90;;;34.60;;
23586;SDS011;11971;51.148;4.104;2023-01-28T03:13:35;61.40;;;32.20;;
23586;SDS011;11971;51.148;4.104;2023-01-28T03:16:21;69.05;;;34.97;;
23586;SDS011;11971;51.148;4.104;2023-01-28T03:19:05;68.45;;;34.65;;
23586;SDS011;11971;51.148;4.104;2023-01-28T03:21:49;66.15;;;34.55;;
23586;SDS011;11971;51.148;4.104;2023-01-28T03:24:36;67.70;;;34.75;;
23586;SDS011;11971;51.148;4.104;2023-01-28T03:27:25;70.55;;;33.88;;
23586;SDS011;11971;51.148;4.104;2023-01-28T03:30:14;67.65;;;34.75;;
23586;SDS011;11971;51.148;4.104;2023-01-28T03:33:01;73.20;;;35.33;;
23586;SDS011;11971;51.148;4.104;2023-01-28T03:35:47;68.38;;;34.03;;
23586;SDS011;11971;51.148;4.104;2023-01-28T03:38:31;64.88;;;33.22;;
23586;SDS011;11971;51.148;4.104;2023-01-28T03:41:06;66.45;;;33.80;;
23586;SDS011;11971;51.148;4.104;2023-01-28T03:43:33;66.13;;;33.60;;
23586;SDS011;11971;51.148;4.104;2023-01-28T03:46:01;62.17;;;32.47;;
23586;SDS011;11971;51.148;4.104;2023-01-28T03:48:31;63.70;;;33.17;;
23586;SDS011;11971;51.148;4.104;2023-01-28T03:50:58;67.93;;;34.78;;
23586;SDS011;11971;51.148;4.104;2023-01-28T03:53:25;68.07;;;34.50;;
23586;SDS011;11971;51.148;4.104;2023-01-28T03:55:52;65.95;;;33.97;;
23586;SDS011;11971;51.148;4.104;2023-01-28T03:58:20;68.72;;;34.92;;
23586;SDS011;11971;51.148;4.104;2023-01-28T04:00:51;67.03;;;34.05;;
23586;SDS011;11971;51.148;4.104;2023-01-28T04:03:18;63.15;;;32.72;;
23586;SDS011;11971;51.148;4.104;2023-01-28T04:05:56;68.07;;;33.85;;
23586;SDS011;11971;51.148;4.104;2023-01-28T04:10:51;66.15;;;33.78;;
23586;SDS011;11971;51.148;4.104;2023-01-28T04:13:17;65.40;;;34.28;;
23586;SDS011;11971;51.148;4.104;2023-01-28T04:15:44;69.13;;;34.60;;
23586;SDS011;11971;51.148;4.104;2023-01-28T04:18:11;68.78;;;35.50;;
23586;SDS011;11971;51.148;4.104;2023-01-28T04:20:37;67.03;;;34.10;;
23586;SDS011;11971;51.148;4.104;2023-01-28T04:23:06;66.88;;;33.40;;
23586;SDS011;11971;51.148;4.104;2023-01-28T04:25:33;67.55;;;34.22;;
23586;SDS011;11971;51.148;4.104;2023-01-28T04:27:59;66.30;;;34.08;;
23586;SDS011;11971;51.148;4.104;2023-01-28T04:30:26;65.07;;;33.58;;
23586;SDS011;11971;51.148;4.104;2023-01-28T04:32:53;64.35;;;33.58;;
23586;SDS011;11971;51.148;4.104;2023-01-28T04:35:19;64.70;;;33.35;;
23586;SDS011;11971;51.148;4.104;2023-01-28T04:37:46;66.47;;;34.33;;
23586;SDS011;11971;51.148;4.104;2023-01-28T04:40:14;66.50;;;34.20;;
23586;SDS011;11971;51.148;4.104;2023-01-28T04:42:41;67.33;;;34.50;;
23586;SDS011;11971;51.148;4.104;2023-01-28T04:45:07;68.63;;;34.38;;
23586;SDS011;11971;51.148;4.104;2023-01-28T04:47:34;69.88;;;35.22;;
23586;SDS011;11971;51.148;4.104;2023-01-28T04:50:01;64.72;;;33.15;;
23586;SDS011;11971;51.148;4.104;2023-01-28T04:52:28;64.15;;;33.08;;
23586;SDS011;11971;51.148;4.104;2023-01-28T04:54:54;70.47;;;35.50;;
23586;SDS011;11971;51.148;4.104;2023-01-28T04:57:22;69.72;;;34.67;;
23586;SDS011;11971;51.148;4.104;2023-01-28T04:59:49;65.90;;;33.90;;
23586;SDS011;11971;51.148;4.104;2023-01-28T05:02:16;68.00;;;34.40;;
23586;SDS011;11971;51.148;4.104;2023-01-28T05:04:42;63.75;;;32.60;;
23586;SDS011;11971;51.148;4.104;2023-01-28T05:07:09;66.10;;;34.00;;
23586;SDS011;11971;51.148;4.104;2023-01-28T05:09:36;69.30;;;34.83;;
23586;SDS011;11971;51.148;4.104;2023-01-28T05:12:03;68.50;;;35.08;;
23586;SDS011;11971;51.148;4.104;2023-01-28T05:14:31;65.70;;;34.22;;
23586;SDS011;11971;51.148;4.104;2023-01-28T05:16:57;68.05;;;34.42;;
23586;SDS011;11971;51.148;4.104;2023-01-28T05:19:24;66.20;;;33.25;;
23586;SDS011;11971;51.148;4.104;2023-01-28T05:21:51;67.80;;;34.10;;
23586;SDS011;11971;51.148;4.104;2023-01-28T05:24:17;68.70;;;34.72;;
23586;SDS011;11971;51.148;4.104;2023-01-28T05:26:45;69.18;;;34.67;;
23586;SDS011;11971;51.148;4.104;2023-01-28T05:29:12;66.88;;;34.20;;
23586;SDS011;11971;51.148;4.104;2023-01-28T05:31:40;71.38;;;34.78;;
23586;SDS011;11971;51.148;4.104;2023-01-28T05:34:06;63.47;;;32.50;;
23586;SDS011;11971;51.148;4.104;2023-01-28T05:36:33;65.75;;;33.60;;
23586;SDS011;11971;51.148;4.104;2023-01-28T05:39:00;66.15;;;33.80;;
23586;SDS011;11971;51.148;4.104;2023-01-28T05:41:26;69.05;;;34.92;;
23586;SDS011;11971;51.148;4.104;2023-01-28T05:43:53;68.90;;;35.40;;
23586;SDS011;11971;51.148;4.104;2023-01-28T05:46:19;64.70;;;33.63;;
23586;SDS011;11971;51.148;4.104;2023-01-28T05:48:48;71.10;;;35.35;;
23586;SDS011;11971;51.148;4.104;2023-01-28T05:51:15;70.10;;;34.95;;
23586;SDS011;11971;51.148;4.104;2023-01-28T05:53:42;68.05;;;34.28;;
23586;SDS011;11971;51.148;4.104;2023-01-28T05:56:08;69.43;;;35.30;;
23586;SDS011;11971;51.148;4.104;2023-01-28T05:58:35;71.32;;;35.50;;
23586;SDS011;11971;51.148;4.104;2023-01-28T06:01:01;67.63;;;34.17;;
23586;SDS011;11971;51.148;4.104;2023-01-28T06:03:28;70.68;;;35.40;;
23586;SDS011;11971;51.148;4.104;2023-01-28T06:05:56;65.65;;;33.63;;
23586;SDS011;11971;51.148;4.104;2023-01-28T06:08:23;68.45;;;34.25;;
23586;SDS011;11971;51.148;4.104;2023-01-28T06:10:50;68.80;;;34.50;;
23586;SDS011;11971;51.148;4.104;2023-01-28T06:13:16;69.22;;;35.13;;
23586;SDS011;11971;51.148;4.104;2023-01-28T06:15:43;69.45;;;35.08;;
23586;SDS011;11971;51.148;4.104;2023-01-28T06:18:10;68.35;;;34.75;;
23586;SDS011;11971;51.148;4.104;2023-01-28T06:20:36;69.18;;;34.95;;
23586;SDS011;11971;51.148;4.104;2023-01-28T06:23:04;66.88;;;33.67;;
23586;SDS011;11971;51.148;4.104;2023-01-28T06:25:31;71.47;;;35.47;;
23586;SDS011;11971;51.148;4.104;2023-01-28T06:27:57;67.40;;;34.45;;
23586;SDS011;11971;51.148;4.104;2023-01-28T06:30:24;64.88;;;33.58;;
23586;SDS011;11971;51.148;4.104;2023-01-28T06:32:52;65.10;;;32.95;;
23586;SDS011;11971;51.148;4.104;2023-01-28T06:35:19;66.80;;;33.17;;
23586;SDS011;11971;51.148;4.104;2023-01-28T06:37:46;66.20;;;33.40;;
23586;SDS011;11971;51.148;4.104;2023-01-28T06:40:15;69.00;;;33.83;;
23586;SDS011;11971;51.148;4.104;2023-01-28T06:42:42;65.20;;;33.83;;
23586;SDS011;11971;51.148;4.104;2023-01-28T06:45:09;70.43;;;34.00;;
23586;SDS011;11971;51.148;4.104;2023-01-28T06:47:37;64.25;;;33.58;;
23586;SDS011;11971;51.148;4.104;2023-01-28T06:50:04;65.78;;;33.22;;
23586;SDS011;11971;51.148;4.104;2023-01-28T06:52:31;68.65;;;34.75;;
23586;SDS011;11971;51.148;4.104;2023-01-28T06:54:57;66.03;;;34.03;;
23586;SDS011;11971;51.148;4.104;2023-01-28T06:57:27;69.07;;;34.77;;
23586;SDS011;11971;51.148;4.104;2023-01-28T06:59:53;67.53;;;34.40;;
23586;SDS011;11971;51.148;4.104;2023-01-28T07:02:20;66.93;;;34.20;;
23586;SDS011;11971;51.148;4.104;2023-01-28T07:04:47;67.95;;;33.95;;
23586;SDS011;11971;51.148;4.104;2023-01-28T07:07:13;68.50;;;34.60;;
23586;SDS011;11971;51.148;4.104;2023-01-28T07:09:40;67.22;;;34.45;;
23586;SDS011;11971;51.148;4.104;2023-01-28T07:12:06;68.85;;;34.35;;
23586;SDS011;11971;51.148;4.104;2023-01-28T07:14:34;68.80;;;33.92;;
23586;SDS011;11971;51.148;4.104;2023-01-28T07:17:01;68.90;;;34.20;;
23586;SDS011;11971;51.148;4.104;2023-01-28T07:19:28;67.90;;;33.80;;
23586;SDS011;11971;51.148;4.104;2023-01-28T07:21:54;69.60;;;34.33;;
23586;SDS011;11971;51.148;4.104;2023-01-28T07:24:24;64.45;;;32.53;;
23586;SDS011;11971;51.148;4.104;2023-01-28T07:26:51;67.65;;;33.88;;
23586;SDS011;11971;51.148;4.104;2023-01-28T07:29:17;67.93;;;33.63;;
23586;SDS011;11971;51.148;4.104;2023-01-28T07:31:45;65.97;;;33.53;;
23586;SDS011;11971;51.148;4.104;2023-01-28T07:34:12;71.63;;;34.75;;
23586;SDS011;11971;51.148;4.104;2023-01-28T07:36:39;66.45;;;34.38;;
23586;SDS011;11971;51.148;4.104;2023-01-28T07:39:06;68.93;;;34.95;;
23586;SDS011;11971;51.148;4.104;2023-01-28T07:41:34;64.93;;;32.60;;
23586;SDS011;11971;51.148;4.104;2023-01-28T07:44:01;64.38;;;32.95;;
23586;SDS011;11971;51.148;4.104;2023-01-28T07:46:28;67.95;;;33.85;;
23586;SDS011;11971;51.148;4.104;2023-01-28T07:48:56;70.13;;;34.28;;
23586;SDS011;11971;51.148;4.104;2023-01-28T07:51:22;71.57;;;34.90;;
23586;SDS011;11971;51.148;4.104;2023-01-28T07:53:49;67.95;;;34.95;;
23586;SDS011;11971;51.148;4.104;2023-01-28T07:56:16;72.00;;;35.33;;
23586;SDS011;11971;51.148;4.104;2023-01-28T07:58:43;69.35;;;34.78;;
23586;SDS011;11971;51.148;4.104;2023-01-28T08:01:09;74.00;;;35.63;;
23586;SDS011;11971;51.148;4.104;2023-01-28T08:03:36;68.85;;;35.10;;
23586;SDS011;11971;51.148;4.104;2023-01-28T08:06:04;72.85;;;35.55;;
23586;SDS011;11971;51.148;4.104;2023-01-28T08:08:31;69.07;;;35.45;;
23586;SDS011;11971;51.148;4.104;2023-01-28T08:10:57;69.32;;;35.47;;
23586;SDS011;11971;51.148;4.104;2023-01-28T08:13:25;69.90;;;34.58;;
23586;SDS011;11971;51.148;4.104;2023-01-28T08:15:53;72.53;;;36.47;;
23586;SDS011;11971;51.148;4.104;2023-01-28T08:18:20;70.68;;;34.80;;
23586;SDS011;11971;51.148;4.104;2023-01-28T08:20:47;73.38;;;36.15;;
23586;SDS011;11971;51.148;4.104;2023-01-28T08:23:15;73.57;;;35.72;;
23586;SDS011;11971;51.148;4.104;2023-01-28T08:25:43;70.22;;;35.13;;
23586;SDS011;11971;51.148;4.104;2023-01-28T08:28:10;69.32;;;34.92;;
23586;SDS011;11971;51.148;4.104;2023-01-28T08:30:37;72.00;;;34.95;;
23586;SDS011;11971;51.148;4.104;2023-01-28T08:33:05;72.32;;;35.78;;
23586;SDS011;11971;51.148;4.104;2023-01-28T08:35:33;73.30;;;35.92;;
23586;SDS011;11971;51.148;4.104;2023-01-28T08:38:00;71.30;;;35.60;;
23586;SDS011;11971;51.148;4.104;2023-01-28T08:40:29;70.05;;;35.38;;
23586;SDS011;11971;51.148;4.104;2023-01-28T08:42:56;73.97;;;35.70;;
23586;SDS011;11971;51.148;4.104;2023-01-28T08:45:23;72.72;;;35.97;;
23586;SDS011;11971;51.148;4.104;2023-01-28T08:47:51;74.63;;;36.10;;
23586;SDS011;11971;51.148;4.104;2023-01-28T08:50:20;72.53;;;35.97;;
23586;SDS011;11971;51.148;4.104;2023-01-28T08:52:47;73.43;;;35.58;;
23586;SDS011;11971;51.148;4.104;2023-01-28T08:55:14;73.75;;;35.30;;
23586;SDS011;11971;51.148;4.104;2023-01-28T08:57:44;71.13;;;35.80;;
23586;SDS011;11971;51.148;4.104;2023-01-28T09:00:11;71.85;;;36.00;;
23586;SDS011;11971;51.148;4.104;2023-01-28T09:02:38;72.68;;;35.30;;
23586;SDS011;11971;51.148;4.104;2023-01-28T09:05:05;72.25;;;35.40;;
23586;SDS011;11971;51.148;4.104;2023-01-28T09:07:33;73.45;;;35.70;;
23586;SDS011;11971;51.148;4.104;2023-01-28T09:10:00;73.07;;;36.00;;
23586;SDS011;11971;51.148;4.104;2023-01-28T09:12:27;73.07;;;35.60;;
23586;SDS011;11971;51.148;4.104;2023-01-28T09:14:55;75.22;;;35.78;;
23586;SDS011;11971;51.148;4.104;2023-01-28T09:19:49;73.72;;;35.92;;
23586;SDS011;11971;51.148;4.104;2023-01-28T09:22:15;74.57;;;36.05;;
23586;SDS011;11971;51.148;4.104;2023-01-28T09:24:42;72.95;;;35.80;;
23586;SDS011;11971;51.148;4.104;2023-01-28T09:27:09;73.88;;;36.42;;
23586;SDS011;11971;51.148;4.104;2023-01-28T09:29:35;73.85;;;37.03;;
23586;SDS011;11971;51.148;4.104;2023-01-28T09:32:04;74.80;;;36.35;;
23586;SDS011;11971;51.148;4.104;2023-01-28T09:34:31;74.68;;;36.15;;
23586;SDS011;11971;51.148;4.104;2023-01-28T09:36:58;74.00;;;36.30;;
23586;SDS011;11971;51.148;4.104;2023-01-28T09:39:24;75.95;;;36.17;;
23586;SDS011;11971;51.148;4.104;2023-01-28T09:41:55;69.15;;;35.38;;
23586;SDS011;11971;51.148;4.104;2023-01-28T09:44:33;74.18;;;36.55;;
23586;SDS011;11971;51.148;4.104;2023-01-28T09:47:17;74.80;;;36.90;;
23586;SDS011;11971;51.148;4.104;2023-01-28T09:49:47;74.82;;;36.80;;
23586;SDS011;11971;51.148;4.104;2023-01-28T09:52:16;75.70;;;36.63;;
23586;SDS011;11971;51.148;4.104;2023-01-28T09:54:45;73.70;;;35.53;;
23586;SDS011;11971;51.148;4.104;2023-01-28T09:57:16;72.07;;;36.40;;
23586;SDS011;11971;51.148;4.104;2023-01-28T09:59:45;74.45;;;36.67;;
23586;SDS011;11971;51.148;4.104;2023-01-28T10:02:28;74.67;;;36.37;;
23586;SDS011;11971;51.148;4.104;2023-01-28T10:05:04;74.25;;;35.90;;
23586;SDS011;11971;51.148;4.104;2023-01-28T10:07:39;75.68;;;36.22;;
23586;SDS011;11971;51.148;4.104;2023-01-28T10:10:10;73.45;;;36.20;;
23586;SDS011;11971;51.148;4.104;2023-01-28T10:12:42;75.00;;;35.92;;
23586;SDS011;11971;51.148;4.104;2023-01-28T10:17:58;71.70;;;35.28;;
23586;SDS011;11971;51.148;4.104;2023-01-28T10:20:27;76.30;;;36.95;;
23586;SDS011;11971;51.148;4.104;2023-01-28T10:22:59;73.82;;;36.22;;
23586;SDS011;11971;51.148;4.104;2023-01-28T10:25:30;75.78;;;35.92;;
23586;SDS011;11971;51.148;4.104;2023-01-28T10:27:58;75.20;;;36.07;;
23586;SDS011;11971;51.148;4.104;2023-01-28T10:30:27;76.57;;;37.30;;
23586;SDS011;11971;51.148;4.104;2023-01-28T10:32:58;74.43;;;36.63;;
23586;SDS011;11971;51.148;4.104;2023-01-28T10:35:29;76.95;;;36.67;;
23586;SDS011;11971;51.148;4.104;2023-01-28T10:38:01;72.82;;;35.55;;
23586;SDS011;11971;51.148;4.104;2023-01-28T10:40:32;74.57;;;35.80;;
23586;SDS011;11971;51.148;4.104;2023-01-28T10:42:59;74.45;;;35.78;;
23586;SDS011;11971;51.148;4.104;2023-01-28T10:45:27;74.65;;;36.70;;
23586;SDS011;11971;51.148;4.104;2023-01-28T10:47:59;75.32;;;36.47;;
23586;SDS011;11971;51.148;4.104;2023-01-28T10:50:28;75.88;;;36.78;;
23586;SDS011;11971;51.148;4.104;2023-01-28T10:52:56;72.80;;;36.42;;
23586;SDS011;11971;51.148;4.104;2023-01-28T10:55:24;74.07;;;36.77;;
23586;SDS011;11971;51.148;4.104;2023-01-28T10:57:52;75.75;;;36.28;;
23586;SDS011;11971;51.148;4.104;2023-01-28T11:00:23;73.65;;;35.97;;
23586;SDS011;11971;51.148;4.104;2023-01-28T11:02:51;72.45;;;35.65;;
23586;SDS011;11971;51.148;4.104;2023-01-28T11:05:21;72.40;;;35.38;;
23586;SDS011;11971;51.148;4.104;2023-01-28T11:08:01;75.18;;;35.63;;
23586;SDS011;11971;51.148;4.104;2023-01-28T11:10:29;75.65;;;36.05;;
23586;SDS011;11971;51.148;4.104;2023-01-28T11:12:58;72.50;;;35.58;;
23586;SDS011;11971;51.148;4.104;2023-01-28T11:15:26;75.25;;;35.92;;
23586;SDS011;11971;51.148;4.104;2023-01-28T11:17:54;70.38;;;34.38;;
23586;SDS011;11971;51.148;4.104;2023-01-28T11:20:25;68.95;;;34.13;;
23586;SDS011;11971;51.148;4.104;2023-01-28T11:22:52;72.90;;;35.03;;
23586;SDS011;11971;51.148;4.104;2023-01-28T11:25:22;69.03;;;34.17;;
23586;SDS011;11971;51.148;4.104;2023-01-28T11:27:53;70.47;;;34.60;;
23586;SDS011;11971;51.148;4.104;2023-01-28T11:30:21;72.13;;;35.45;;
23586;SDS011;11971;51.148;4.104;2023-01-28T11:32:56;70.70;;;34.95;;
23586;SDS011;11971;51.148;4.104;2023-01-28T11:35:26;69.78;;;34.38;;
23586;SDS011;11971;51.148;4.104;2023-01-28T11:37:55;68.78;;;34.00;;
23586;SDS011;11971;51.148;4.104;2023-01-28T11:40:22;69.60;;;34.92;;
23586;SDS011;11971;51.148;4.104;2023-01-28T11:42:49;70.60;;;34.45;;
23586;SDS011;11971;51.148;4.104;2023-01-28T11:45:16;72.28;;;34.70;;
23586;SDS011;11971;51.148;4.104;2023-01-28T11:47:50;71.18;;;34.35;;
23586;SDS011;11971;51.148;4.104;2023-01-28T11:50:30;69.00;;;34.22;;
23586;SDS011;11971;51.148;4.104;2023-01-28T11:53:08;69.88;;;33.55;;
23586;SDS011;11971;51.148;4.104;2023-01-28T11:56:06;67.63;;;33.92;;
23586;SDS011;11971;51.148;4.104;2023-01-28T11:58:50;68.93;;;33.97;;
23586;SDS011;11971;51.148;4.104;2023-01-28T12:01:23;68.93;;;33.42;;
23586;SDS011;11971;51.148;4.104;2023-01-28T12:04:05;70.53;;;33.90;;
23586;SDS011;11971;51.148;4.104;2023-01-28T12:06:53;67.13;;;33.45;;
23586;SDS011;11971;51.148;4.104;2023-01-28T12:09:28;66.40;;;33.30;;
23586;SDS011;11971;51.148;4.104;2023-01-28T12:12:03;66.00;;;33.15;;
23586;SDS011;11971;51.148;4.104;2023-01-28T12:14:44;68.22;;;33.08;;
23586;SDS011;11971;51.148;4.104;2023-01-28T12:17:24;64.70;;;32.85;;
23586;SDS011;11971;51.148;4.104;2023-01-28T12:19:59;66.25;;;32.78;;
23586;SDS011;11971;51.148;4.104;2023-01-28T12:25:31;65.70;;;33.20;;
23586;SDS011;11971;51.148;4.104;2023-01-28T12:28:07;67.13;;;33.45;;
23586;SDS011;11971;51.148;4.104;2023-01-28T12:30:39;67.57;;;33.70;;
23586;SDS011;11971;51.148;4.104;2023-01-28T12:33:19;68.70;;;33.13;;
23586;SDS011;11971;51.148;4.104;2023-01-28T12:36:07;67.70;;;33.75;;
23586;SDS011;11971;51.148;4.104;2023-01-28T12:38:47;66.55;;;33.55;;
23586;SDS011;11971;51.148;4.104;2023-01-28T12:41:22;66.03;;;33.10;;
23586;SDS011;11971;51.148;4.104;2023-01-28T12:43:52;70.35;;;33.47;;
23586;SDS011;11971;51.148;4.104;2023-01-28T12:49:07;67.18;;;33.63;;
23586;SDS011;11971;51.148;4.104;2023-01-28T12:51:41;65.72;;;33.40;;
23586;SDS011;11971;51.148;4.104;2023-01-28T12:54:15;66.57;;;33.20;;
23586;SDS011;11971;51.148;4.104;2023-01-28T12:56:44;66.30;;;33.28;;
23586;SDS011;11971;51.148;4.104;2023-01-28T12:59:16;66.00;;;32.85;;
23586;SDS011;11971;51.148;4.104;2023-01-28T13:01:48;68.15;;;33.72;;
23586;SDS011;11971;51.148;4.104;2023-01-28T13:04:17;71.55;;;34.15;;
23586;SDS011;11971;51.148;4.104;2023-01-28T13:06:49;71.82;;;33.90;;
23586;SDS011;11971;51.148;4.104;2023-01-28T13:09:21;68.45;;;34.03;;
23586;SDS011;11971;51.148;4.104;2023-01-28T13:11:50;74.53;;;33.95;;
23586;SDS011;11971;51.148;4.104;2023-01-28T13:14:18;68.25;;;33.90;;
23586;SDS011;11971;51.148;4.104;2023-01-28T13:16:47;70.95;;;33.45;;
23586;SDS011;11971;51.148;4.104;2023-01-28T13:19:21;72.55;;;34.47;;
23586;SDS011;11971;51.148;4.104;2023-01-28T13:21:49;68.45;;;33.83;;
23586;SDS011;11971;51.148;4.104;2023-01-28T13:24:21;66.45;;;33.15;;
23586;SDS011;11971;51.148;4.104;2023-01-28T13:26:49;68.15;;;33.63;;
23586;SDS011;11971;51.148;4.104;2023-01-28T13:29:26;68.35;;;34.40;;
23586;SDS011;11971;51.148;4.104;2023-01-28T13:31:58;69.07;;;34.08;;
23586;SDS011;11971;51.148;4.104;2023-01-28T13:34:30;68.88;;;34.30;;
23586;SDS011;11971;51.148;4.104;2023-01-28T13:37:01;70.15;;;34.25;;
23586;SDS011;11971;51.148;4.104;2023-01-28T13:39:31;68.78;;;33.55;;
23586;SDS011;11971;51.148;4.104;2023-01-28T13:42:18;69.65;;;34.00;;
23586;SDS011;11971;51.148;4.104;2023-01-28T13:44:47;67.35;;;33.58;;
23586;SDS011;11971;51.148;4.104;2023-01-28T13:47:18;67.45;;;33.30;;
23586;SDS011;11971;51.148;4.104;2023-01-28T13:49:49;70.85;;;33.80;;
23586;SDS011;11971;51.148;4.104;2023-01-28T13:52:21;69.97;;;34.45;;
23586;SDS011;11971;51.148;4.104;2023-01-28T13:54:52;71.43;;;34.92;;
23586;SDS011;11971;51.148;4.104;2023-01-28T13:57:31;69.03;;;34.65;;
23586;SDS011;11971;51.148;4.104;2023-01-28T14:00:10;70.07;;;34.35;;
23586;SDS011;11971;51.148;4.104;2023-01-28T14:02:57;71.97;;;34.40;;
23586;SDS011;11971;51.148;4.104;2023-01-28T14:08:41;67.32;;;34.38;;
23586;SDS011;11971;51.148;4.104;2023-01-28T14:11:20;70.65;;;34.90;;
23586;SDS011;11971;51.148;4.104;2023-01-28T14:14:22;70.30;;;34.92;;
23586;SDS011;11971;51.148;4.104;2023-01-28T14:16:56;70.78;;;35.53;;
23586;SDS011;11971;51.148;4.104;2023-01-28T14:19:25;70.40;;;35.13;;
23586;SDS011;11971;51.148;4.104;2023-01-28T14:21:52;71.72;;;34.72;;
23586;SDS011;11971;51.148;4.104;2023-01-28T14:24:19;72.30;;;35.10;;
23586;SDS011;11971;51.148;4.104;2023-01-28T14:26:52;71.93;;;35.40;;
23586;SDS011;11971;51.148;4.104;2023-01-28T14:29:34;70.53;;;34.38;;
23586;SDS011;11971;51.148;4.104;2023-01-28T14:32:10;70.60;;;34.83;;
23586;SDS011;11971;51.148;4.104;2023-01-28T14:34:38;69.80;;;34.58;;
23586;SDS011;11971;51.148;4.104;2023-01-28T14:37:05;69.63;;;34.33;;
23586;SDS011;11971;51.148;4.104;2023-01-28T14:39:42;70.80;;;34.78;;
23586;SDS011;11971;51.148;4.104;2023-01-28T14:42:13;68.43;;;34.42;;
23586;SDS011;11971;51.148;4.104;2023-01-28T14:44:44;70.80;;;34.75;;
23586;SDS011;11971;51.148;4.104;2023-01-28T14:50:03;71.43;;;34.90;;
23586;SDS011;11971;51.148;4.104;2023-01-28T14:52:42;71.40;;;35.03;;
23586;SDS011;11971;51.148;4.104;2023-01-28T14:55:20;69.93;;;34.63;;
23586;SDS011;11971;51.148;4.104;2023-01-28T14:57:57;74.43;;;36.15;;
23586;SDS011;11971;51.148;4.104;2023-01-28T15:00:26;73.18;;;35.00;;
23586;SDS011;11971;51.148;4.104;2023-01-28T15:02:55;72.82;;;35.33;;